^^
Saratoga-Weather Station Historical Data
Daily Summary for July 21, 2020 Units:  English    Metric   Both
Daily Weekly Monthly Yearly Custom
  High: Low: Average:
Temperature: 39.4 °F 27.3 °F 32.5 °F
Dew Point: 37.6 °F 26.4 °F 31.1 °F
Humidity: 96% 91% 95%
Wind Speed: 2mph 0mph 0.2mph
Wind Gust: 3mph - -
Wind- - SE
Pressure: 30.6 in 30.4 in -
Precipitation: 0 in    
Historical Graphs
 
 
Tabular Data for July 21, 2020
Time Temperature Dew Point Pressure Wind Wind Speed Wind Gust Humidity Rainfall Rate (Hourly) solar
00:02 29.8 °F 28.4 °F 30.6 in Calm     94% 0 in 0 W/m2
00:08 29.8 °F 28.4 °F 30.6 in Calm     94% 0 in 0 W/m2
00:13 29.8 °F 28.4 °F 30.6 in Calm     94% 0 in 0 W/m2
00:18 29.8 °F 28.4 °F 30.6 in Calm     94% 0 in 0 W/m2
00:23 29.8 °F 28.6 °F 30.6 in Calm     95% 0 in 0 W/m2
00:28 29.8 °F 28.6 °F 30.6 in Calm     95% 0 in 0 W/m2
00:33 29.8 °F 28.6 °F 30.6 in Calm     95% 0 in 0 W/m2
00:38 29.8 °F 28.6 °F 30.6 in Calm     95% 0 in 0 W/m2
00:43 29.8 °F 28.6 °F 30.6 in Calm     95% 0 in 0 W/m2
00:48 29.8 °F 28.6 °F 30.6 in Calm     95% 0 in 0 W/m2
00:53 29.8 °F 28.6 °F 30.6 in Calm     95% 0 in 0 W/m2
00:58 29.8 °F 28.6 °F 30.6 in Calm     95% 0 in 0 W/m2
01:03 29.8 °F 28.6 °F 30.6 in Calm     95% 0 in 0 W/m2
01:08 29.7 °F 28.4 °F 30.6 in Calm     95% 0 in 0 W/m2
01:13 29.7 °F 28.4 °F 30.6 in Calm     95% 0 in 0 W/m2
01:18 29.7 °F 28.4 °F 30.6 in Calm     95% 0 in 0 W/m2
01:23 29.7 °F 28.4 °F 30.6 in Calm     95% 0 in 0 W/m2
01:28 29.7 °F 28.4 °F 30.6 in Calm     95% 0 in 0 W/m2
01:33 29.5 °F 28.2 °F 30.6 in Calm     95% 0 in 0 W/m2
01:38 29.5 °F 28.2 °F 30.6 in Calm     95% 0 in 0 W/m2
01:43 29.5 °F 28.2 °F 30.6 in Calm     95% 0 in 0 W/m2
01:48 29.5 °F 28.2 °F 30.6 in Calm     95% 0 in 0 W/m2
01:53 29.5 °F 28.2 °F 30.6 in Calm     95% 0 in 0 W/m2
01:58 29.3 °F 28 °F 30.6 in Calm     95% 0 in 0 W/m2
02:03 29.1 °F 27.9 °F 30.6 in Calm     95% 0 in 0 W/m2
02:08 29.1 °F 27.9 °F 30.6 in Calm     95% 0 in 0 W/m2
02:13 29.1 °F 27.9 °F 30.6 in Calm     95% 0 in 0 W/m2
02:18 29.1 °F 27.9 °F 30.6 in Calm     95% 0 in 0 W/m2
02:23 29.1 °F 27.9 °F 30.6 in Calm     95% 0 in 0 W/m2
02:28 28.9 °F 27.7 °F 30.6 in Calm     95% 0 in 0 W/m2
02:33 28.9 °F 27.7 °F 30.6 in Calm     95% 0 in 0 W/m2
02:38 28.9 °F 27.7 °F 30.6 in Calm     95% 0 in 0 W/m2
02:43 28.9 °F 27.7 °F 30.6 in Calm     95% 0 in 0 W/m2
02:48 28.8 °F 27.5 °F 30.6 in Calm     95% 0 in 0 W/m2
02:53 28.8 °F 27.5 °F 30.6 in Calm     95% 0 in 0 W/m2
02:58 28.6 °F 27.3 °F 30.6 in Calm     95% 0 in 0 W/m2
03:03 28.6 °F 27.3 °F 30.6 in Calm     95% 0 in 0 W/m2
03:08 28.6 °F 27.3 °F 30.6 in Calm     95% 0 in 0 W/m2
03:13 28.8 °F 27.5 °F 30.6 in Calm     95% 0 in 0 W/m2
03:18 28.8 °F 27.5 °F 30.6 in Calm     95% 0 in 0 W/m2
03:23 28.8 °F 27.5 °F 30.6 in Calm     95% 0 in 0 W/m2
03:28 28.8 °F 27.5 °F 30.6 in Calm     95% 0 in 0 W/m2
03:33 28.6 °F 27.3 °F 30.6 in Calm     95% 0 in 0 W/m2
03:38 28.6 °F 27.3 °F 30.6 in Calm     95% 0 in 0 W/m2
03:43 28.4 °F 27.1 °F 30.6 in Calm     95% 0 in 0 W/m2
03:48 28.4 °F 27.1 °F 30.6 in Calm     95% 0 in 0 W/m2
03:53 28.2 °F 27 °F 30.6 in Calm     95% 0 in 0 W/m2
03:58 28.2 °F 27 °F 30.6 in Calm     95% 0 in 0 W/m2
04:03 28.2 °F 27 °F 30.6 in Calm     95% 0 in 0 W/m2
04:08 28.2 °F 27 °F 30.6 in Calm     95% 0 in 0 W/m2
04:13 28 °F 26.8 °F 30.6 in Calm     95% 0 in 0 W/m2
04:18 28.2 °F 27.1 °F 30.6 in Calm     96% 0 in 0 W/m2
04:23 28 °F 27 °F 30.6 in Calm     96% 0 in 0 W/m2
04:28 28 °F 27 °F 30.6 in Calm     96% 0 in 0 W/m2
04:33 28 °F 27 °F 30.6 in Calm     96% 0 in 0 W/m2
04:38 27.9 °F 26.8 °F 30.6 in Calm     96% 0 in 0 W/m2
04:44 27.9 °F 26.6 °F 30.6 in Calm     95% 0 in 0 W/m2
04:49 27.7 °F 26.4 °F 30.6 in Calm     95% 0 in 0 W/m2
04:54 27.7 °F 26.4 °F 30.6 in Calm     95% 0 in 0 W/m2
04:59 27.7 °F 26.4 °F 30.6 in West 0.9 mph 1 mph 95% 0 in 0 W/m2
05:04 27.7 °F 26.6 °F 30.6 in West 0.9 mph 2 mph 96% 0 in 0 W/m2
05:09 27.7 °F 26.6 °F 30.6 in Calm   1 mph 96% 0 in 0 W/m2
05:14 27.7 °F 26.6 °F 30.6 in Calm     96% 0 in 0 W/m2
05:19 27.7 °F 26.6 °F 30.6 in Calm   1 mph 96% 0 in 0 W/m2
05:24 27.5 °F 26.6 °F 30.6 in Calm     96% 0 in 0 W/m2
05:29 27.5 °F 26.6 °F 30.6 in Calm     96% 0 in 0 W/m2
05:34 27.3 °F 26.4 °F 30.6 in Calm     96% 0 in 0 W/m2
05:39 27.3 °F 26.4 °F 30.6 in West 0.9 mph 1 mph 96% 0 in 0 W/m2
05:44 27.3 °F 26.4 °F 30.6 in SSE 0.9 mph 2 mph 96% 0 in 0 W/m2
05:49 27.3 °F 26.4 °F 30.6 in SSE 0.9 mph 2 mph 96% 0 in 0 W/m2
05:54 27.3 °F 26.4 °F 30.6 in Calm   1 mph 96% 0 in 0 W/m2
05:59 27.3 °F 26.4 °F 30.6 in Calm   1 mph 96% 0 in 0 W/m2
06:04 27.3 °F 26.4 °F 30.6 in SE 0.9 mph 2 mph 96% 0 in 0 W/m2
06:09 27.3 °F 26.4 °F 30.6 in Calm   1 mph 96% 0 in 0 W/m2
06:14 27.5 °F 26.6 °F 30.6 in Calm   2 mph 96% 0 in 0 W/m2
06:19 27.5 °F 26.6 °F 30.6 in Calm     96% 0 in 0 W/m2
06:24 27.3 °F 26.4 °F 30.6 in Calm     96% 0 in 0 W/m2
06:29 27.3 °F 26.4 °F 30.6 in Calm     96% 0 in 0 W/m2
06:34 27.5 °F 26.6 °F 30.6 in Calm     96% 0 in 0 W/m2
06:39 27.5 °F 26.6 °F 30.6 in Calm     96% 0 in 0 W/m2
06:44 27.5 °F 26.6 °F 30.6 in Calm     96% 0 in 0 W/m2
06:49 27.7 °F 26.6 °F 30.6 in Calm     96% 0 in 0 W/m2
06:54 27.7 °F 26.6 °F 30.6 in Calm     96% 0 in 0 W/m2
06:59 27.7 °F 26.6 °F 30.6 in Calm     96% 0 in 0 W/m2
07:04 27.9 °F 26.8 °F 30.6 in Calm     96% 0 in 0 W/m2
07:09 27.9 °F 26.8 °F 30.6 in Calm     96% 0 in 0 W/m2
07:14 28 °F 27 °F 30.6 in Calm     96% 0 in 0 W/m2
07:19 28.2 °F 27.1 °F 30.6 in Calm     96% 0 in 0 W/m2
07:24 28.2 °F 27.1 °F 30.6 in Calm     96% 0 in 0 W/m2
07:29 28.2 °F 27.1 °F 30.6 in Calm     96% 0 in 0 W/m2
07:34 28.2 °F 27.1 °F 30.6 in Calm     96% 0 in 0 W/m2
07:39 28.2 °F 27.1 °F 30.6 in Calm     96% 0 in 0 W/m2
07:44 28.4 °F 27.3 °F 30.6 in Calm     96% 0 in 0 W/m2
07:49 28.4 °F 27.3 °F 30.6 in Calm     96% 0 in 5 W/m2
07:54 28.6 °F 27.5 °F 30.6 in Calm     96% 0 in 0 W/m2
07:59 28.6 °F 27.5 °F 30.6 in SE 0.9 mph 2 mph 96% 0 in 0 W/m2
08:04 28.6 °F 27.5 °F 30.6 in SE 0.9 mph 2 mph 96% 0 in 5 W/m2
08:09 28.6 °F 27.5 °F 30.6 in Calm   1 mph 96% 0 in 7 W/m2
08:14 28.6 °F 27.5 °F 30.6 in Calm   1 mph 96% 0 in 11 W/m2
08:19 28.4 °F 27.3 °F 30.6 in Calm     96% 0 in 14 W/m2
08:24 28.4 °F 27.3 °F 30.6 in Calm     96% 0 in 16 W/m2
08:29 28.4 °F 27.3 °F 30.6 in Calm     96% 0 in 18 W/m2
08:34 28.4 °F 27.3 °F 30.6 in ESE 2 mph 2 mph 96% 0 in 21 W/m2
08:39 28.6 °F 27.5 °F 30.6 in ESE 0.9 mph 2 mph 96% 0 in 25 W/m2
08:44 28.6 °F 27.5 °F 30.6 in ESE 0.9 mph 1 mph 96% 0 in 28 W/m2
08:49 28.6 °F 27.5 °F 30.6 in Calm     96% 0 in 32 W/m2
08:54 28.8 °F 27.7 °F 30.6 in Calm     96% 0 in 33 W/m2
08:59 28.8 °F 27.7 °F 30.6 in Calm     96% 0 in 35 W/m2
09:04 28.9 °F 27.9 °F 30.6 in Calm   2 mph 96% 0 in 37 W/m2
09:09 29.1 °F 28 °F 30.6 in Calm   1 mph 96% 0 in 39 W/m2
09:14 29.3 °F 28.2 °F 30.6 in Calm   2 mph 96% 0 in 42 W/m2
09:19 29.5 °F 28.4 °F 30.6 in ESE 0.9 mph 1 mph 96% 0 in 47 W/m2
09:24 29.7 °F 28.6 °F 30.6 in Calm   2 mph 96% 0 in 51 W/m2
09:29 29.8 °F 28.8 °F 30.6 in Calm     96% 0 in 49 W/m2
09:34 29.8 °F 28.8 °F 30.6 in ESE 0.9 mph 2 mph 96% 0 in 47 W/m2
09:39 29.8 °F 28.8 °F 30.6 in ESE 0.9 mph 1 mph 96% 0 in 42 W/m2
09:44 29.8 °F 28.8 °F 30.6 in Calm   2 mph 96% 0 in 39 W/m2
09:49 29.8 °F 28.8 °F 30.6 in Calm     96% 0 in 39 W/m2
09:54 29.8 °F 28.8 °F 30.6 in Calm     96% 0 in 40 W/m2
09:59 29.8 °F 28.8 °F 30.6 in Calm   1 mph 96% 0 in 47 W/m2
10:04 29.8 °F 28.8 °F 30.6 in Calm   1 mph 96% 0 in 77 W/m2
10:09 30 °F 28.9 °F 30.6 in Calm   1 mph 96% 0 in 79 W/m2
10:14 30.2 °F 29.1 °F 30.6 in Calm   2 mph 96% 0 in 56 W/m2
10:19 30.4 °F 29.3 °F 30.6 in Calm   1 mph 96% 0 in 56 W/m2
10:24 30.4 °F 29.3 °F 30.6 in Calm   1 mph 96% 0 in 70 W/m2
10:29 30.6 °F 29.5 °F 30.6 in East 0.9 mph 2 mph 96% 0 in 84 W/m2
10:34 30.7 °F 29.7 °F 30.6 in East 0.9 mph 1 mph 96% 0 in 105 W/m2
10:39 30.9 °F 29.8 °F 30.6 in Calm   2 mph 96% 0 in 116 W/m2
10:44 31.1 °F 30 °F 30.6 in East 0.9 mph 1 mph 96% 0 in 116 W/m2
10:49 31.3 °F 30.2 °F 30.6 in Calm   1 mph 96% 0 in 130 W/m2
10:54 31.5 °F 30.4 °F 30.6 in East 0.9 mph 1 mph 96% 0 in 125 W/m2
10:59 31.6 °F 30.6 °F 30.6 in Calm     96% 0 in 121 W/m2
11:04 31.8 °F 30.7 °F 30.6 in Calm     96% 0 in 98 W/m2
11:09 32.2 °F 31.1 °F 30.6 in Calm   1 mph 96% 0 in 95 W/m2
11:14 32.4 °F 31.3 °F 30.6 in Calm   1 mph 96% 0 in 95 W/m2
11:19 32.4 °F 31.3 °F 30.6 in Calm     96% 0 in 93 W/m2
11:24 32.5 °F 31.5 °F 30.6 in Calm     96% 0 in 97 W/m2
11:29 32.7 °F 31.6 °F 30.6 in Calm     96% 0 in 91 W/m2
11:34 32.7 °F 31.6 °F 30.6 in Calm     96% 0 in 98 W/m2
11:39 33.1 °F 32 °F 30.5 in Calm   2 mph 96% 0 in 93 W/m2
11:44 33.3 °F 32.2 °F 30.5 in Calm   3 mph 96% 0 in 90 W/m2
11:49 33.6 °F 32.5 °F 30.5 in Calm   2 mph 96% 0 in 84 W/m2
11:54 34 °F 32.9 °F 30.5 in ENE 0.9 mph 2 mph 96% 0 in 77 W/m2
11:59 34.2 °F 33.1 °F 30.5 in ENE 0.9 mph 1 mph 96% 0 in 74 W/m2
12:04 34.3 °F 33.3 °F 30.5 in Calm   1 mph 96% 0 in 70 W/m2
12:09 34.5 °F 33.4 °F 30.5 in Calm   1 mph 96% 0 in 65 W/m2
12:14 34.7 °F 33.6 °F 30.5 in ENE 0.9 mph 2 mph 96% 0 in 56 W/m2
12:19 34.9 °F 33.8 °F 30.5 in ENE 0.9 mph 2 mph 96% 0 in 62 W/m2
12:24 35.1 °F 34 °F 30.5 in Calm   1 mph 96% 0 in 62 W/m2
12:29 35.2 °F 34.2 °F 30.5 in Calm   2 mph 96% 0 in 56 W/m2
12:34 35.4 °F 34.3 °F 30.5 in Calm   1 mph 96% 0 in 56 W/m2
12:39 35.8 °F 34.7 °F 30.5 in Calm   1 mph 96% 0 in 60 W/m2
12:44 36 °F 34.9 °F 30.5 in ENE 0.9 mph 2 mph 96% 0 in 65 W/m2
12:49 36.1 °F 35.1 °F 30.5 in Calm   2 mph 96% 0 in 54 W/m2
12:54 36.5 °F 35.4 °F 30.5 in Calm   2 mph 96% 0 in 53 W/m2
12:59 36.9 °F 35.6 °F 30.5 in East 0.9 mph 2 mph 95% 0 in 53 W/m2
13:04 37 °F 35.8 °F 30.5 in East 0.9 mph 1 mph 95% 0 in 53 W/m2
13:09 37.4 °F 36.1 °F 30.5 in Calm   1 mph 95% 0 in 54 W/m2
13:14 37.8 °F 36.5 °F 30.5 in ENE 0.9 mph 2 mph 95% 0 in 53 W/m2
13:19 37.9 °F 36.7 °F 30.5 in ENE 0.9 mph 2 mph 95% 0 in 46 W/m2
13:24 38.1 °F 36.5 °F 30.5 in Calm     94% 0 in 49 W/m2
13:29 38.5 °F 36.9 °F 30.5 in Calm   2 mph 94% 0 in 54 W/m2
13:34 38.7 °F 37 °F 30.5 in East 0.9 mph 2 mph 94% 0 in 65 W/m2
13:39 38.8 °F 37.2 °F 30.5 in East 0.9 mph 1 mph 94% 0 in 46 W/m2
13:45 39.2 °F 37.6 °F 30.5 in Calm   2 mph 94% 0 in 42 W/m2
13:50 39.4 °F 37.6 °F 30.5 in Calm     93% 0 in 44 W/m2
13:55 39.4 °F 37.6 °F 30.5 in Calm   1 mph 93% 0 in 58 W/m2
14:00 39.4 °F 37.6 °F 30.5 in Calm     93% 0 in 37 W/m2
14:05 39.4 °F 37.6 °F 30.5 in Calm     93% 0 in 35 W/m2
14:10 39.4 °F 37.6 °F 30.5 in Calm   1 mph 93% 0 in 37 W/m2
14:15 39.4 °F 37.6 °F 30.5 in Calm     93% 0 in 33 W/m2
14:20 39.2 °F 37.4 °F 30.5 in SSE 0.9 mph 1 mph 93% 0 in 33 W/m2
14:25 39 °F 36.9 °F 30.5 in SSE 0.9 mph 2 mph 92% 0 in 32 W/m2
14:30 39 °F 37.2 °F 30.5 in Calm     93% 0 in 30 W/m2
14:35 39 °F 37.2 °F 30.5 in ESE 0.9 mph 1 mph 93% 0 in 28 W/m2
14:40 39 °F 36.9 °F 30.5 in ESE 0.9 mph 2 mph 92% 0 in 28 W/m2
14:45 39 °F 36.9 °F 30.5 in SE 0.9 mph 1 mph 92% 0 in 26 W/m2
14:50 39 °F 37.2 °F 30.5 in Calm     93% 0 in 28 W/m2
14:55 39.2 °F 37.4 °F 30.5 in SE 0.9 mph 1 mph 93% 0 in 30 W/m2
15:00 39.2 °F 37 °F 30.5 in Calm   1 mph 92% 0 in 32 W/m2
15:05 39.2 °F 37 °F 30.5 in Calm     92% 0 in 30 W/m2
15:10 39 °F 36.9 °F 30.5 in Calm     92% 0 in 26 W/m2
15:15 39 °F 36.9 °F 30.5 in Calm   1 mph 92% 0 in 25 W/m2
15:20 39 °F 36.9 °F 30.5 in Calm   2 mph 92% 0 in 23 W/m2
15:25 38.8 °F 36.7 °F 30.5 in Calm     92% 0 in 25 W/m2
15:30 38.8 °F 36.7 °F 30.5 in Calm     92% 0 in 23 W/m2
15:35 38.8 °F 36.7 °F 30.5 in Calm     92% 0 in 21 W/m2
15:40 38.8 °F 36.7 °F 30.5 in Calm     92% 0 in 19 W/m2
15:45 38.7 °F 36.5 °F 30.5 in Calm     92% 0 in 19 W/m2
15:50 38.7 °F 36.5 °F 30.5 in SE 0.9 mph 1 mph 92% 0 in 18 W/m2
15:55 38.7 °F 36.5 °F 30.5 in Calm   1 mph 92% 0 in 18 W/m2
16:00 38.5 °F 36.3 °F 30.5 in Calm   1 mph 92% 0 in 16 W/m2
16:05 38.5 °F 36.3 °F 30.5 in Calm     92% 0 in 14 W/m2
16:10 38.5 °F 36.3 °F 30.5 in Calm   1 mph 92% 0 in 14 W/m2
16:15 38.5 °F 36.3 °F 30.5 in Calm   1 mph 92% 0 in 12 W/m2
16:20 38.5 °F 36.3 °F 30.5 in Calm   1 mph 92% 0 in 11 W/m2
16:25 38.3 °F 36.1 °F 30.5 in SE 0.9 mph 2 mph 92% 0 in 11 W/m2
16:30 38.1 °F 35.8 °F 30.5 in SE 2 mph 2 mph 91% 0 in 9 W/m2
16:35 38.1 °F 36 °F 30.5 in Calm   2 mph 92% 0 in 7 W/m2
16:40 38.1 °F 35.8 °F 30.5 in SE 0.9 mph 2 mph 91% 0 in 7 W/m2
16:45 38.1 °F 35.8 °F 30.5 in SE 0.9 mph 2 mph 91% 0 in 5 W/m2
16:50 38.1 °F 35.8 °F 30.5 in SE 0.9 mph 2 mph 91% 0 in 0 W/m2
16:55 38.1 °F 35.8 °F 30.5 in SE 0.9 mph 2 mph 91% 0 in 0 W/m2
17:00 37.9 °F 35.6 °F 30.5 in SE 0.9 mph 2 mph 91% 0 in 0 W/m2
17:05 37.9 °F 35.6 °F 30.5 in SE 0.9 mph 1 mph 91% 0 in 0 W/m2
17:10 37.8 °F 35.4 °F 30.5 in SE 0.9 mph 1 mph 91% 0 in 0 W/m2
17:15 37.6 °F 35.2 °F 30.5 in Calm   2 mph 91% 0 in 0 W/m2
17:20 37.4 °F 35.1 °F 30.5 in SE 0.9 mph 2 mph 91% 0 in 0 W/m2
17:25 37.2 °F 34.9 °F 30.5 in SE 0.9 mph 2 mph 91% 0 in 0 W/m2
17:30 37 °F 34.7 °F 30.5 in SE 0.9 mph 2 mph 91% 0 in 0 W/m2
17:35 36.9 °F 34.5 °F 30.5 in Calm   2 mph 91% 0 in 0 W/m2
17:40 36.9 °F 34.5 °F 30.5 in SE 0.9 mph 2 mph 91% 0 in 0 W/m2
17:45 36.9 °F 34.7 °F 30.5 in SE 0.9 mph 1 mph 92% 0 in 0 W/m2
17:50 36.9 °F 34.5 °F 30.5 in SE 0.9 mph 1 mph 91% 0 in 0 W/m2
17:55 36.7 °F 34.5 °F 30.5 in Calm   2 mph 92% 0 in 0 W/m2
18:00 36.7 °F 34.5 °F 30.5 in Calm   1 mph 92% 0 in 0 W/m2
18:05 36.5 °F 34.3 °F 30.5 in SE 0.9 mph 1 mph 92% 0 in 0 W/m2
18:10 36.3 °F 34.2 °F 30.5 in SE 0.9 mph 2 mph 92% 0 in 0 W/m2
18:15 36.3 °F 34.2 °F 30.5 in Calm     92% 0 in 0 W/m2
18:20 36.1 °F 34 °F 30.5 in Calm   2 mph 92% 0 in 0 W/m2
18:25 36.1 °F 34 °F 30.5 in Calm     92% 0 in 0 W/m2
18:30 36 °F 34.2 °F 30.5 in Calm     93% 0 in 0 W/m2
18:35 36.1 °F 34.3 °F 30.5 in Calm   1 mph 93% 0 in 0 W/m2
18:40 36.3 °F 34.5 °F 30.5 in Calm     93% 0 in 0 W/m2
18:45 36.3 °F 34.5 °F 30.5 in Calm     93% 0 in 0 W/m2
18:50 36.7 °F 34.9 °F 30.5 in Calm     93% 0 in 0 W/m2
18:55 36.7 °F 35.1 °F 30.5 in Calm     94% 0 in 0 W/m2
19:00 36.9 °F 35.2 °F 30.5 in Calm     94% 0 in 0 W/m2
19:05 36.9 °F 35.1 °F 30.5 in SE 0.9 mph 1 mph 93% 0 in 0 W/m2
19:10 36.7 °F 34.9 °F 30.5 in Calm     93% 0 in 0 W/m2
19:15 36.7 °F 34.9 °F 30.5 in Calm     93% 0 in 0 W/m2
19:21 36.5 °F 34.7 °F 30.5 in Calm     93% 0 in 0 W/m2
19:26 36.3 °F 34.5 °F 30.5 in Calm     93% 0 in 0 W/m2
19:31 36.1 °F 34.3 °F 30.5 in Calm     93% 0 in 0 W/m2
19:36 36 °F 34.2 °F 30.5 in Calm     93% 0 in 0 W/m2
19:41 35.8 °F 34 °F 30.5 in Calm     93% 0 in 0 W/m2
19:46 35.6 °F 33.8 °F 30.5 in Calm     93% 0 in 0 W/m2
19:51 35.4 °F 33.6 °F 30.5 in Calm     93% 0 in 0 W/m2
19:56 35.4 °F 33.6 °F 30.5 in Calm     93% 0 in 0 W/m2
20:01 35.2 °F 33.4 °F 30.5 in Calm     93% 0 in 0 W/m2
20:06 35.2 °F 33.4 °F 30.5 in Calm     93% 0 in 0 W/m2
20:11 35.1 °F 33.3 °F 30.5 in Calm     93% 0 in 0 W/m2
20:16 35.1 °F 33.3 °F 30.5 in Calm     93% 0 in 0 W/m2
20:21 34.9 °F 33.1 °F 30.5 in Calm     93% 0 in 0 W/m2
20:26 34.9 °F 33.1 °F 30.5 in Calm     93% 0 in 0 W/m2
20:31 34.7 °F 32.9 °F 30.5 in Calm     93% 0 in 0 W/m2
20:36 34.5 °F 32.7 °F 30.5 in Calm     93% 0 in 0 W/m2
20:41 34.3 °F 32.5 °F 30.5 in Calm     93% 0 in 0 W/m2
20:46 34.3 °F 32.5 °F 30.5 in Calm     93% 0 in 0 W/m2
20:51 34.2 °F 32.4 °F 30.5 in Calm     93% 0 in 0 W/m2
20:56 34 °F 32.2 °F 30.5 in Calm     93% 0 in 0 W/m2
21:01 34 °F 32.2 °F 30.5 in Calm     93% 0 in 0 W/m2
21:06 33.8 °F 32.2 °F 30.5 in Calm     94% 0 in 0 W/m2
21:11 33.6 °F 32 °F 30.5 in Calm     94% 0 in 0 W/m2
21:16 33.4 °F 31.8 °F 30.5 in Calm     94% 0 in 0 W/m2
21:21 33.4 °F 31.8 °F 30.5 in Calm     94% 0 in 0 W/m2
21:26 33.3 °F 31.6 °F 30.5 in Calm     94% 0 in 0 W/m2
21:31 33.3 °F 31.6 °F 30.5 in Calm     94% 0 in 0 W/m2
21:36 33.3 °F 31.6 °F 30.5 in Calm     94% 0 in 0 W/m2
21:41 33.1 °F 31.5 °F 30.5 in Calm     94% 0 in 0 W/m2
21:46 33.1 °F 31.5 °F 30.5 in Calm     94% 0 in 0 W/m2
21:51 33.1 °F 31.5 °F 30.5 in Calm     94% 0 in 0 W/m2
21:56 33.1 °F 31.8 °F 30.5 in Calm     95% 0 in 0 W/m2
22:01 33.1 °F 31.8 °F 30.5 in Calm     95% 0 in 0 W/m2
22:06 33.1 °F 31.5 °F 30.5 in Calm     94% 0 in 0 W/m2
22:11 32.9 °F 31.3 °F 30.5 in Calm     94% 0 in 0 W/m2
22:16 32.9 °F 31.3 °F 30.5 in Calm     94% 0 in 0 W/m2
22:21 32.7 °F 31.5 °F 30.5 in Calm     95% 0 in 0 W/m2
22:26 32.7 °F 31.5 °F 30.5 in Calm     95% 0 in 0 W/m2
22:31 32.5 °F 31.3 °F 30.5 in Calm     95% 0 in 0 W/m2
22:36 32.5 °F 31.3 °F 30.5 in Calm     95% 0 in 0 W/m2
22:41 32.5 °F 31.3 °F 30.5 in Calm     95% 0 in 0 W/m2
22:46 32.4 °F 31.1 °F 30.5 in Calm     95% 0 in 0 W/m2
22:51 32.4 °F 31.1 °F 30.5 in Calm     95% 0 in 0 W/m2
22:56 32.4 °F 31.1 °F 30.4 in Calm     95% 0 in 0 W/m2
23:01 32.4 °F 31.1 °F 30.4 in Calm     95% 0 in 0 W/m2
23:06 32.4 °F 31.1 °F 30.4 in Calm     95% 0 in 0 W/m2
23:11 32.4 °F 31.1 °F 30.4 in Calm     95% 0 in 0 W/m2
23:16 32.4 °F 31.1 °F 30.4 in Calm     95% 0 in 0 W/m2
23:21 32.5 °F 31.3 °F 30.4 in Calm     95% 0 in 0 W/m2
23:26 32.5 °F 31.3 °F 30.5 in Calm     95% 0 in 0 W/m2
23:31 32.5 °F 31.3 °F 30.4 in Calm     95% 0 in 0 W/m2
23:36 32.5 °F 31.3 °F 30.5 in Calm     95% 0 in 0 W/m2
23:41 32.5 °F 31.3 °F 30.4 in Calm     95% 0 in 0 W/m2
23:46 32.5 °F 31.3 °F 30.4 in Calm     95% 0 in 0 W/m2
23:51 32.7 °F 31.5 °F 30.4 in Calm     95% 0 in 0 W/m2
23:56 32.7 °F 31.5 °F 30.4 in Calm     95% 0 in 0 W/m2
Juneau County Weather
Compliments of Weather Underground - 4 mb